sensor_id;sensor_type;location;lat;lon;timestamp;temperature;humidity
12602;DHT22;30282;16.436;99.370;2023-04-24T00:01:40;26.80;99.90
12602;DHT22;30282;16.436;99.370;2023-04-24T00:04:09;26.80;99.90
12602;DHT22;30282;16.436;99.370;2023-04-24T00:06:40;26.80;99.90
12602;DHT22;30282;16.436;99.370;2023-04-24T00:09:10;26.90;99.90
12602;DHT22;30282;16.436;99.370;2023-04-24T00:11:41;27.00;99.90
12602;DHT22;30282;16.436;99.370;2023-04-24T00:14:10;27.00;99.90
12602;DHT22;30282;16.436;99.370;2023-04-24T00:16:39;27.00;99.90
12602;DHT22;30282;16.436;99.370;2023-04-24T00:19:08;27.10;99.90
12602;DHT22;30282;16.436;99.370;2023-04-24T00:21:38;27.10;99.90
12602;DHT22;30282;16.436;99.370;2023-04-24T00:24:08;27.20;99.90
12602;DHT22;30282;16.436;99.370;2023-04-24T00:26:39;27.30;99.90
12602;DHT22;30282;16.436;99.370;2023-04-24T00:29:08;27.40;99.90
12602;DHT22;30282;16.436;99.370;2023-04-24T00:31:37;27.40;99.90
12602;DHT22;30282;16.436;99.370;2023-04-24T00:34:06;27.50;99.90
12602;DHT22;30282;16.436;99.370;2023-04-24T00:36:36;27.50;99.90
12602;DHT22;30282;16.436;99.370;2023-04-24T00:39:05;27.50;99.90
12602;DHT22;30282;16.436;99.370;2023-04-24T00:41:36;27.60;99.90
12602;DHT22;30282;16.436;99.370;2023-04-24T00:44:06;27.70;99.90
12602;DHT22;30282;16.436;99.370;2023-04-24T00:46:36;27.80;99.90
12602;DHT22;30282;16.436;99.370;2023-04-24T00:49:06;27.90;99.90
12602;DHT22;30282;16.436;99.370;2023-04-24T00:51:35;27.90;99.90
12602;DHT22;30282;16.436;99.370;2023-04-24T00:54:04;28.00;99.90
12602;DHT22;30282;16.436;99.370;2023-04-24T00:56:34;28.00;99.90
12602;DHT22;30282;16.436;99.370;2023-04-24T00:59:05;27.90;99.90
12602;DHT22;30282;16.436;99.370;2023-04-24T01:01:35;27.90;99.90
12602;DHT22;30282;16.436;99.370;2023-04-24T01:04:05;27.90;99.90
12602;DHT22;30282;16.436;99.370;2023-04-24T01:06:34;27.90;99.90
12602;DHT22;30282;16.436;99.370;2023-04-24T01:09:04;28.00;99.90
12602;DHT22;30282;16.436;99.370;2023-04-24T01:11:34;28.10;99.90
12602;DHT22;30282;16.436;99.370;2023-04-24T01:14:05;28.30;99.90
12602;DHT22;30282;16.436;99.370;2023-04-24T01:16:35;28.30;99.90
12602;DHT22;30282;16.436;99.370;2023-04-24T01:19:08;28.40;99.90
12602;DHT22;30282;16.436;99.370;2023-04-24T01:21:39;28.50;99.90
12602;DHT22;30282;16.436;99.370;2023-04-24T01:24:10;28.60;99.90
12602;DHT22;30282;16.436;99.370;2023-04-24T01:26:40;28.70;99.90
12602;DHT22;30282;16.436;99.370;2023-04-24T01:29:09;28.80;99.90
12602;DHT22;30282;16.436;99.370;2023-04-24T01:31:38;29.00;99.90
12602;DHT22;30282;16.436;99.370;2023-04-24T01:34:08;29.10;99.90
12602;DHT22;30282;16.436;99.370;2023-04-24T01:36:38;29.10;99.90
12602;DHT22;30282;16.436;99.370;2023-04-24T01:39:09;29.20;99.90
12602;DHT22;30282;16.436;99.370;2023-04-24T01:41:38;29.30;99.90
12602;DHT22;30282;16.436;99.370;2023-04-24T01:44:08;29.40;99.90
12602;DHT22;30282;16.436;99.370;2023-04-24T01:46:37;29.50;99.90
12602;DHT22;30282;16.436;99.370;2023-04-24T01:49:06;29.60;99.90
12602;DHT22;30282;16.436;99.370;2023-04-24T01:51:36;29.60;99.90
12602;DHT22;30282;16.436;99.370;2023-04-24T01:54:05;29.70;99.90
12602;DHT22;30282;16.436;99.370;2023-04-24T01:56:37;29.80;99.90
12602;DHT22;30282;16.436;99.370;2023-04-24T01:59:10;29.90;99.90
12602;DHT22;30282;16.436;99.370;2023-04-24T02:01:40;30.10;99.90
12602;DHT22;30282;16.436;99.370;2023-04-24T02:04:09;30.20;99.90
12602;DHT22;30282;16.436;99.370;2023-04-24T02:06:38;30.30;99.90
12602;DHT22;30282;16.436;99.370;2023-04-24T02:09:07;30.40;99.90
12602;DHT22;30282;16.436;99.370;2023-04-24T02:11:40;30.50;99.90
12602;DHT22;30282;16.436;99.370;2023-04-24T02:14:09;30.60;99.90
12602;DHT22;30282;16.436;99.370;2023-04-24T02:16:39;30.60;99.90
12602;DHT22;30282;16.436;99.370;2023-04-24T02:19:08;30.70;99.90
12602;DHT22;30282;16.436;99.370;2023-04-24T02:21:37;30.80;99.90
12602;DHT22;30282;16.436;99.370;2023-04-24T02:24:06;31.00;99.90
12602;DHT22;30282;16.436;99.370;2023-04-24T02:26:36;31.00;99.90
12602;DHT22;30282;16.436;99.370;2023-04-24T02:29:06;30.90;99.90
12602;DHT22;30282;16.436;99.370;2023-04-24T02:31:36;31.00;99.90
12602;DHT22;30282;16.436;99.370;2023-04-24T02:34:05;31.00;99.90
12602;DHT22;30282;16.436;99.370;2023-04-24T02:36:34;31.10;99.90
12602;DHT22;30282;16.436;99.370;2023-04-24T02:39:03;31.30;99.90
12602;DHT22;30282;16.436;99.370;2023-04-24T02:41:32;31.30;99.90
12602;DHT22;30282;16.436;99.370;2023-04-24T02:44:02;31.30;99.90
12602;DHT22;30282;16.436;99.370;2023-04-24T02:46:33;31.50;99.90
12602;DHT22;30282;16.436;99.370;2023-04-24T02:49:02;31.60;99.90
12602;DHT22;30282;16.436;99.370;2023-04-24T02:51:31;31.80;99.90
12602;DHT22;30282;16.436;99.370;2023-04-24T02:54:00;31.90;99.90
12602;DHT22;30282;16.436;99.370;2023-04-24T02:56:29;31.80;99.90
12602;DHT22;30282;16.436;99.370;2023-04-24T02:58:59;31.90;99.90
12602;DHT22;30282;16.436;99.370;2023-04-24T03:01:28;32.00;99.90
12602;DHT22;30282;16.436;99.370;2023-04-24T03:03:59;32.00;99.90
12602;DHT22;30282;16.436;99.370;2023-04-24T03:06:28;32.20;99.90
12602;DHT22;30282;16.436;99.370;2023-04-24T03:08:58;32.20;99.90
12602;DHT22;30282;16.436;99.370;2023-04-24T03:11:27;32.20;99.90
12602;DHT22;30282;16.436;99.370;2023-04-24T03:13:56;32.30;99.90
12602;DHT22;30282;16.436;99.370;2023-04-24T03:16:25;32.30;99.90
12602;DHT22;30282;16.436;99.370;2023-04-24T03:18:54;32.40;99.90
12602;DHT22;30282;16.436;99.370;2023-04-24T03:21:25;32.40;99.90
12602;DHT22;30282;16.436;99.370;2023-04-24T03:23:55;32.40;99.90
12602;DHT22;30282;16.436;99.370;2023-04-24T03:26:24;32.40;99.90
12602;DHT22;30282;16.436;99.370;2023-04-24T03:28:53;32.40;99.90
12602;DHT22;30282;16.436;99.370;2023-04-24T03:31:23;32.60;99.90
12602;DHT22;30282;16.436;99.370;2023-04-24T03:33:53;32.70;99.90
12602;DHT22;30282;16.436;99.370;2023-04-24T03:36:22;32.70;99.90
12602;DHT22;30282;16.436;99.370;2023-04-24T03:38:53;32.80;99.90
12602;DHT22;30282;16.436;99.370;2023-04-24T03:41:22;32.90;99.90
12602;DHT22;30282;16.436;99.370;2023-04-24T03:43:51;32.90;99.90
12602;DHT22;30282;16.436;99.370;2023-04-24T03:46:23;32.90;99.90
12602;DHT22;30282;16.436;99.370;2023-04-24T03:48:52;32.80;99.90
12602;DHT22;30282;16.436;99.370;2023-04-24T03:51:21;32.70;99.90
12602;DHT22;30282;16.436;99.370;2023-04-24T03:53:52;32.70;99.90
12602;DHT22;30282;16.436;99.370;2023-04-24T03:56:21;32.60;99.90
12602;DHT22;30282;16.436;99.370;2023-04-24T03:58:50;32.40;99.90
12602;DHT22;30282;16.436;99.370;2023-04-24T04:01:20;32.40;99.90
12602;DHT22;30282;16.436;99.370;2023-04-24T04:03:49;32.50;99.90
12602;DHT22;30282;16.436;99.370;2023-04-24T04:06:18;32.50;99.90
12602;DHT22;30282;16.436;99.370;2023-04-24T04:08:48;32.60;99.90
12602;DHT22;30282;16.436;99.370;2023-04-24T04:11:19;32.70;99.90
12602;DHT22;30282;16.436;99.370;2023-04-24T04:13:48;32.90;99.90
12602;DHT22;30282;16.436;99.370;2023-04-24T04:16:17;33.10;99.90
12602;DHT22;30282;16.436;99.370;2023-04-24T04:18:46;33.20;99.90
12602;DHT22;30282;16.436;99.370;2023-04-24T04:21:16;33.40;99.90
12602;DHT22;30282;16.436;99.370;2023-04-24T04:23:45;33.50;99.90
12602;DHT22;30282;16.436;99.370;2023-04-24T04:26:14;33.60;99.90
12602;DHT22;30282;16.436;99.370;2023-04-24T04:28:47;33.40;99.90
12602;DHT22;30282;16.436;99.370;2023-04-24T04:31:16;33.60;99.90
12602;DHT22;30282;16.436;99.370;2023-04-24T04:33:46;33.70;99.90
12602;DHT22;30282;16.436;99.370;2023-04-24T04:36:15;33.80;99.90
12602;DHT22;30282;16.436;99.370;2023-04-24T04:38:45;33.90;99.90
12602;DHT22;30282;16.436;99.370;2023-04-24T04:41:15;34.10;99.90
12602;DHT22;30282;16.436;99.370;2023-04-24T04:43:46;34.10;99.90
12602;DHT22;30282;16.436;99.370;2023-04-24T04:46:16;34.10;99.90
12602;DHT22;30282;16.436;99.370;2023-04-24T04:48:48;34.10;99.90
12602;DHT22;30282;16.436;99.370;2023-04-24T04:54:46;34.20;99.90
12602;DHT22;30282;16.436;99.370;2023-04-24T04:57:15;34.30;99.90
12602;DHT22;30282;16.436;99.370;2023-04-24T04:59:46;34.40;99.90
12602;DHT22;30282;16.436;99.370;2023-04-24T05:02:15;34.30;99.90
12602;DHT22;30282;16.436;99.370;2023-04-24T05:04:45;34.30;99.90
12602;DHT22;30282;16.436;99.370;2023-04-24T05:07:14;34.40;99.90
12602;DHT22;30282;16.436;99.370;2023-04-24T05:09:43;34.50;99.90
12602;DHT22;30282;16.436;99.370;2023-04-24T05:12:12;34.60;99.90
12602;DHT22;30282;16.436;99.370;2023-04-24T05:14:42;34.70;99.90
12602;DHT22;30282;16.436;99.370;2023-04-24T05:17:13;34.90;99.90
12602;DHT22;30282;16.436;99.370;2023-04-24T05:19:42;35.00;99.90
12602;DHT22;30282;16.436;99.370;2023-04-24T05:22:11;34.90;99.90
12602;DHT22;30282;16.436;99.370;2023-04-24T05:24:43;34.90;99.90
12602;DHT22;30282;16.436;99.370;2023-04-24T05:27:12;34.90;99.90
12602;DHT22;30282;16.436;99.370;2023-04-24T05:29:42;34.90;99.90
12602;DHT22;30282;16.436;99.370;2023-04-24T05:32:12;35.00;99.90
12602;DHT22;30282;16.436;99.370;2023-04-24T05:34:42;34.90;99.90
12602;DHT22;30282;16.436;99.370;2023-04-24T05:37:11;35.00;99.90
12602;DHT22;30282;16.436;99.370;2023-04-24T05:39:40;35.10;99.90
12602;DHT22;30282;16.436;99.370;2023-04-24T05:42:09;35.20;99.90
12602;DHT22;30282;16.436;99.370;2023-04-24T05:44:38;35.10;99.90
12602;DHT22;30282;16.436;99.370;2023-04-24T05:47:07;35.10;99.90
12602;DHT22;30282;16.436;99.370;2023-04-24T05:49:38;35.00;99.90
12602;DHT22;30282;16.436;99.370;2023-04-24T05:52:08;35.00;99.90
12602;DHT22;30282;16.436;99.370;2023-04-24T05:54:37;34.90;99.90
12602;DHT22;30282;16.436;99.370;2023-04-24T05:57:06;34.90;99.90
12602;DHT22;30282;16.436;99.370;2023-04-24T05:59:37;35.00;99.90
12602;DHT22;30282;16.436;99.370;2023-04-24T06:02:06;35.00;99.90
12602;DHT22;30282;16.436;99.370;2023-04-24T06:04:37;35.10;99.90
12602;DHT22;30282;16.436;99.370;2023-04-24T06:07:06;35.20;99.90
12602;DHT22;30282;16.436;99.370;2023-04-24T06:09:36;35.20;99.90
12602;DHT22;30282;16.436;99.370;2023-04-24T06:12:05;35.30;99.90
12602;DHT22;30282;16.436;99.370;2023-04-24T06:14:37;35.30;99.90
12602;DHT22;30282;16.436;99.370;2023-04-24T06:17:06;35.30;99.90
12602;DHT22;30282;16.436;99.370;2023-04-24T06:19:37;35.40;99.90
12602;DHT22;30282;16.436;99.370;2023-04-24T06:22:07;35.70;99.90
12602;DHT22;30282;16.436;99.370;2023-04-24T06:24:36;35.80;99.90
12602;DHT22;30282;16.436;99.370;2023-04-24T06:27:05;35.80;99.90
12602;DHT22;30282;16.436;99.370;2023-04-24T06:29:35;35.70;99.90
12602;DHT22;30282;16.436;99.370;2023-04-24T06:32:05;35.50;99.90
12602;DHT22;30282;16.436;99.370;2023-04-24T06:34:34;35.50;99.90
12602;DHT22;30282;16.436;99.370;2023-04-24T06:37:05;35.60;99.90
12602;DHT22;30282;16.436;99.370;2023-04-24T06:39:34;35.70;99.90
12602;DHT22;30282;16.436;99.370;2023-04-24T06:42:04;35.80;99.90
12602;DHT22;30282;16.436;99.370;2023-04-24T06:44:33;35.90;99.90
12602;DHT22;30282;16.436;99.370;2023-04-24T06:47:07;36.00;99.90
12602;DHT22;30282;16.436;99.370;2023-04-24T06:49:37;36.10;99.90
12602;DHT22;30282;16.436;99.370;2023-04-24T06:52:10;36.20;99.90
12602;DHT22;30282;16.436;99.370;2023-04-24T06:54:42;36.30;99.90
12602;DHT22;30282;16.436;99.370;2023-04-24T06:57:11;36.30;99.90
12602;DHT22;30282;16.436;99.370;2023-04-24T06:59:41;36.30;99.90
12602;DHT22;30282;16.436;99.370;2023-04-24T07:02:10;36.50;99.90
12602;DHT22;30282;16.436;99.370;2023-04-24T07:04:39;36.30;99.90
12602;DHT22;30282;16.436;99.370;2023-04-24T07:07:11;36.30;99.90
12602;DHT22;30282;16.436;99.370;2023-04-24T07:09:41;36.30;99.90
12602;DHT22;30282;16.436;99.370;2023-04-24T07:12:11;36.30;99.90
12602;DHT22;30282;16.436;99.370;2023-04-24T07:14:40;36.30;99.90
12602;DHT22;30282;16.436;99.370;2023-04-24T07:17:09;36.30;99.90
12602;DHT22;30282;16.436;99.370;2023-04-24T07:19:40;36.30;99.90
12602;DHT22;30282;16.436;99.370;2023-04-24T07:22:11;36.20;99.90
12602;DHT22;30282;16.436;99.370;2023-04-24T07:24:43;36.20;99.90
12602;DHT22;30282;16.436;99.370;2023-04-24T07:27:12;36.20;99.90
12602;DHT22;30282;16.436;99.370;2023-04-24T07:29:42;36.30;99.90
12602;DHT22;30282;16.436;99.370;2023-04-24T07:32:11;36.30;99.90
12602;DHT22;30282;16.436;99.370;2023-04-24T07:34:41;36.40;99.90
12602;DHT22;30282;16.436;99.370;2023-04-24T07:37:12;36.30;99.90
12602;DHT22;30282;16.436;99.370;2023-04-24T07:39:41;36.30;99.90
12602;DHT22;30282;16.436;99.370;2023-04-24T07:42:10;36.40;99.90
12602;DHT22;30282;16.436;99.370;2023-04-24T07:44:39;36.50;99.90
12602;DHT22;30282;16.436;99.370;2023-04-24T07:47:09;36.40;99.90
12602;DHT22;30282;16.436;99.370;2023-04-24T07:49:38;36.40;99.90
12602;DHT22;30282;16.436;99.370;2023-04-24T07:52:08;36.30;99.90
12602;DHT22;30282;16.436;99.370;2023-04-24T07:54:38;36.10;99.90
12602;DHT22;30282;16.436;99.370;2023-04-24T07:57:10;36.10;99.90
12602;DHT22;30282;16.436;99.370;2023-04-24T07:59:39;36.00;99.90
12602;DHT22;30282;16.436;99.370;2023-04-24T08:02:08;36.00;99.90
12602;DHT22;30282;16.436;99.370;2023-04-24T08:04:43;36.10;99.90
12602;DHT22;30282;16.436;99.370;2023-04-24T08:07:18;36.10;99.90
12602;DHT22;30282;16.436;99.370;2023-04-24T08:09:49;36.10;99.90
12602;DHT22;30282;16.436;99.370;2023-04-24T08:12:18;36.20;99.90
12602;DHT22;30282;16.436;99.370;2023-04-24T08:14:48;36.30;99.90
12602;DHT22;30282;16.436;99.370;2023-04-24T08:17:17;36.60;99.90
12602;DHT22;30282;16.436;99.370;2023-04-24T08:19:46;36.60;99.90
12602;DHT22;30282;16.436;99.370;2023-04-24T08:22:19;36.60;99.90
12602;DHT22;30282;16.436;99.370;2023-04-24T08:24:51;36.60;99.90
12602;DHT22;30282;16.436;99.370;2023-04-24T08:27:20;36.60;99.90
12602;DHT22;30282;16.436;99.370;2023-04-24T08:29:49;36.60;99.90
12602;DHT22;30282;16.436;99.370;2023-04-24T08:32:19;36.50;99.90
12602;DHT22;30282;16.436;99.370;2023-04-24T08:34:48;36.50;99.90
12602;DHT22;30282;16.436;99.370;2023-04-24T08:37:19;36.50;99.90
12602;DHT22;30282;16.436;99.370;2023-04-24T08:39:51;36.60;99.90
12602;DHT22;30282;16.436;99.370;2023-04-24T08:42:20;36.50;99.90
12602;DHT22;30282;16.436;99.370;2023-04-24T08:44:50;36.60;99.90
12602;DHT22;30282;16.436;99.370;2023-04-24T08:47:20;36.60;99.90
12602;DHT22;30282;16.436;99.370;2023-04-24T08:49:50;36.60;99.90
12602;DHT22;30282;16.436;99.370;2023-04-24T08:52:20;36.50;99.90
12602;DHT22;30282;16.436;99.370;2023-04-24T08:54:52;36.50;99.90
12602;DHT22;30282;16.436;99.370;2023-04-24T08:57:23;36.60;99.90
12602;DHT22;30282;16.436;99.370;2023-04-24T08:59:54;36.70;99.90
12602;DHT22;30282;16.436;99.370;2023-04-24T09:02:24;36.80;99.90
12602;DHT22;30282;16.436;99.370;2023-04-24T09:04:53;36.70;99.90
12602;DHT22;30282;16.436;99.370;2023-04-24T09:07:25;36.70;99.90
12602;DHT22;30282;16.436;99.370;2023-04-24T09:09:59;36.60;99.90
12602;DHT22;30282;16.436;99.370;2023-04-24T09:12:28;36.70;99.90
12602;DHT22;30282;16.436;99.370;2023-04-24T09:14:57;36.70;99.90
12602;DHT22;30282;16.436;99.370;2023-04-24T09:17:27;36.70;99.90
12602;DHT22;30282;16.436;99.370;2023-04-24T09:20:00;36.70;99.90
12602;DHT22;30282;16.436;99.370;2023-04-24T09:22:30;36.70;99.90
12602;DHT22;30282;16.436;99.370;2023-04-24T09:25:08;36.50;99.90
12602;DHT22;30282;16.436;99.370;2023-04-24T09:27:43;36.50;99.90
12602;DHT22;30282;16.436;99.370;2023-04-24T09:30:14;36.50;99.90
12602;DHT22;30282;16.436;99.370;2023-04-24T09:33:10;36.50;99.90
12602;DHT22;30282;16.436;99.370;2023-04-24T09:35:41;36.40;99.90
12602;DHT22;30282;16.436;99.370;2023-04-24T09:38:11;36.50;99.90
12602;DHT22;30282;16.436;99.370;2023-04-24T09:40:42;36.50;99.90
12602;DHT22;30282;16.436;99.370;2023-04-24T09:43:12;36.50;99.90
12602;DHT22;30282;16.436;99.370;2023-04-24T09:45:42;36.50;99.90
12602;DHT22;30282;16.436;99.370;2023-04-24T09:48:11;36.30;99.90
12602;DHT22;30282;16.436;99.370;2023-04-24T09:50:46;36.30;99.90
12602;DHT22;30282;16.436;99.370;2023-04-24T09:53:15;36.30;99.90
12602;DHT22;30282;16.436;99.370;2023-04-24T09:55:47;36.30;99.90
12602;DHT22;30282;16.436;99.370;2023-04-24T09:58:17;36.30;99.90
12602;DHT22;30282;16.436;99.370;2023-04-24T10:00:46;36.30;99.90
12602;DHT22;30282;16.436;99.370;2023-04-24T10:03:17;36.30;99.90
12602;DHT22;30282;16.436;99.370;2023-04-24T10:05:47;36.30;99.90
12602;DHT22;30282;16.436;99.370;2023-04-24T10:08:16;36.30;99.90
12602;DHT22;30282;16.436;99.370;2023-04-24T10:10:47;36.20;99.90
12602;DHT22;30282;16.436;99.370;2023-04-24T10:13:16;36.20;99.90
12602;DHT22;30282;16.436;99.370;2023-04-24T10:15:47;36.10;99.90
12602;DHT22;30282;16.436;99.370;2023-04-24T10:18:17;36.10;99.90
12602;DHT22;30282;16.436;99.370;2023-04-24T10:20:46;36.10;99.90
12602;DHT22;30282;16.436;99.370;2023-04-24T10:23:16;36.00;99.90
12602;DHT22;30282;16.436;99.370;2023-04-24T10:25:49;35.80;99.90
12602;DHT22;30282;16.436;99.370;2023-04-24T10:28:23;35.60;99.90
12602;DHT22;30282;16.436;99.370;2023-04-24T10:30:54;35.50;99.90
12602;DHT22;30282;16.436;99.370;2023-04-24T10:33:26;35.40;99.90
12602;DHT22;30282;16.436;99.370;2023-04-24T10:35:57;35.40;99.90
12602;DHT22;30282;16.436;99.370;2023-04-24T10:38:28;35.40;99.90
12602;DHT22;30282;16.436;99.370;2023-04-24T10:41:07;35.40;99.90
12602;DHT22;30282;16.436;99.370;2023-04-24T10:43:41;35.30;99.90
12602;DHT22;30282;16.436;99.370;2023-04-24T10:46:10;35.30;99.90
12602;DHT22;30282;16.436;99.370;2023-04-24T10:48:43;35.20;99.90
12602;DHT22;30282;16.436;99.370;2023-04-24T10:51:22;35.20;99.90
12602;DHT22;30282;16.436;99.370;2023-04-24T10:53:57;35.20;99.90
12602;DHT22;30282;16.436;99.370;2023-04-24T10:56:28;35.20;99.90
12602;DHT22;30282;16.436;99.370;2023-04-24T10:58:57;35.20;99.90
12602;DHT22;30282;16.436;99.370;2023-04-24T11:01:27;35.20;99.90
12602;DHT22;30282;16.436;99.370;2023-04-24T11:04:01;35.20;99.90
12602;DHT22;30282;16.436;99.370;2023-04-24T11:06:33;35.20;99.90
12602;DHT22;30282;16.436;99.370;2023-04-24T11:09:04;35.10;99.90
12602;DHT22;30282;16.436;99.370;2023-04-24T11:11:43;35.10;99.90
12602;DHT22;30282;16.436;99.370;2023-04-24T11:14:15;35.10;99.90
12602;DHT22;30282;16.436;99.370;2023-04-24T11:16:59;35.10;99.90
12602;DHT22;30282;16.436;99.370;2023-04-24T11:19:30;35.10;99.90
12602;DHT22;30282;16.436;99.370;2023-04-24T11:22:00;35.10;99.90
12602;DHT22;30282;16.436;99.370;2023-04-24T11:24:32;35.10;99.90
12602;DHT22;30282;16.436;99.370;2023-04-24T11:27:13;35.00;99.90
12602;DHT22;30282;16.436;99.370;2023-04-24T11:29:44;35.10;99.90
12602;DHT22;30282;16.436;99.370;2023-04-24T11:32:18;35.00;99.90
12602;DHT22;30282;16.436;99.370;2023-04-24T11:34:49;35.00;99.90
12602;DHT22;30282;16.436;99.370;2023-04-24T11:37:18;35.00;99.90
12602;DHT22;30282;16.436;99.370;2023-04-24T11:39:51;35.00;99.90
12602;DHT22;30282;16.436;99.370;2023-04-24T11:42:23;34.90;99.90
12602;DHT22;30282;16.436;99.370;2023-04-24T11:44:53;34.90;99.90
12602;DHT22;30282;16.436;99.370;2023-04-24T11:47:29;34.80;99.90
12602;DHT22;30282;16.436;99.370;2023-04-24T11:50:01;34.80;99.90
12602;DHT22;30282;16.436;99.370;2023-04-24T11:52:31;34.70;99.90
12602;DHT22;30282;16.436;99.370;2023-04-24T11:55:00;34.60;99.90
12602;DHT22;30282;16.436;99.370;2023-04-24T11:57:32;34.60;99.90
12602;DHT22;30282;16.436;99.370;2023-04-24T12:00:04;34.70;99.90
12602;DHT22;30282;16.436;99.370;2023-04-24T12:02:34;34.60;99.90
12602;DHT22;30282;16.436;99.370;2023-04-24T12:05:04;34.60;99.90
12602;DHT22;30282;16.436;99.370;2023-04-24T12:07:41;34.50;99.90
12602;DHT22;30282;16.436;99.370;2023-04-24T12:10:11;34.50;99.90
12602;DHT22;30282;16.436;99.370;2023-04-24T12:12:46;34.40;99.90
12602;DHT22;30282;16.436;99.370;2023-04-24T12:15:17;34.40;99.90
12602;DHT22;30282;16.436;99.370;2023-04-24T12:17:46;34.30;99.90
12602;DHT22;30282;16.436;99.370;2023-04-24T12:20:24;34.30;99.90
12602;DHT22;30282;16.436;99.370;2023-04-24T12:22:55;34.20;99.90
12602;DHT22;30282;16.436;99.370;2023-04-24T12:25:25;34.10;99.90
12602;DHT22;30282;16.436;99.370;2023-04-24T12:28:10;34.10;99.90
12602;DHT22;30282;16.436;99.370;2023-04-24T12:30:43;34.10;99.90
12602;DHT22;30282;16.436;99.370;2023-04-24T12:33:12;34.00;99.90
12602;DHT22;30282;16.436;99.370;2023-04-24T12:35:42;34.00;99.90
12602;DHT22;30282;16.436;99.370;2023-04-24T12:38:12;34.00;99.90
12602;DHT22;30282;16.436;99.370;2023-04-24T12:40:42;34.00;99.90
12602;DHT22;30282;16.436;99.370;2023-04-24T12:43:17;33.90;99.90
12602;DHT22;30282;16.436;99.370;2023-04-24T12:45:47;33.80;99.90
12602;DHT22;30282;16.436;99.370;2023-04-24T12:48:16;33.80;99.90
12602;DHT22;30282;16.436;99.370;2023-04-24T12:50:47;33.70;99.90
12602;DHT22;30282;16.436;99.370;2023-04-24T12:53:16;33.70;99.90
12602;DHT22;30282;16.436;99.370;2023-04-24T12:55:45;33.70;99.90
12602;DHT22;30282;16.436;99.370;2023-04-24T12:58:21;33.70;99.90
12602;DHT22;30282;16.436;99.370;2023-04-24T13:00:51;33.70;99.90
12602;DHT22;30282;16.436;99.370;2023-04-24T13:03:21;33.60;99.90
12602;DHT22;30282;16.436;99.370;2023-04-24T13:05:50;33.60;99.90
12602;DHT22;30282;16.436;99.370;2023-04-24T13:08:20;33.60;99.90
12602;DHT22;30282;16.436;99.370;2023-04-24T13:10:49;33.60;99.90
12602;DHT22;30282;16.436;99.370;2023-04-24T13:13:22;33.50;99.90
12602;DHT22;30282;16.436;99.370;2023-04-24T13:15:51;33.50;99.90
12602;DHT22;30282;16.436;99.370;2023-04-24T13:18:23;33.50;99.90
12602;DHT22;30282;16.436;99.370;2023-04-24T13:20:56;33.50;99.90
12602;DHT22;30282;16.436;99.370;2023-04-24T13:23:27;33.50;99.90
12602;DHT22;30282;16.436;99.370;2023-04-24T13:25:59;33.50;99.90
12602;DHT22;30282;16.436;99.370;2023-04-24T13:28:31;33.40;99.90
12602;DHT22;30282;16.436;99.370;2023-04-24T13:31:02;33.30;99.90
12602;DHT22;30282;16.436;99.370;2023-04-24T13:33:36;33.30;99.90
12602;DHT22;30282;16.436;99.370;2023-04-24T13:36:08;33.20;99.90
12602;DHT22;30282;16.436;99.370;2023-04-24T13:38:38;33.00;99.90
12602;DHT22;30282;16.436;99.370;2023-04-24T13:41:07;33.00;99.90
12602;DHT22;30282;16.436;99.370;2023-04-24T13:43:38;33.00;99.90
12602;DHT22;30282;16.436;99.370;2023-04-24T13:46:08;33.00;99.90
12602;DHT22;30282;16.436;99.370;2023-04-24T13:48:37;33.00;99.90
12602;DHT22;30282;16.436;99.370;2023-04-24T13:51:07;33.00;99.90
12602;DHT22;30282;16.436;99.370;2023-04-24T13:53:36;33.00;99.90
12602;DHT22;30282;16.436;99.370;2023-04-24T13:56:08;33.00;99.90
12602;DHT22;30282;16.436;99.370;2023-04-24T13:58:41;33.00;99.90
12602;DHT22;30282;16.436;99.370;2023-04-24T14:01:13;33.00;99.90
12602;DHT22;30282;16.436;99.370;2023-04-24T14:03:42;32.90;99.90
12602;DHT22;30282;16.436;99.370;2023-04-24T14:06:14;32.90;99.90
12602;DHT22;30282;16.436;99.370;2023-04-24T14:08:44;32.90;99.90
12602;DHT22;30282;16.436;99.370;2023-04-24T14:11:13;32.90;99.90
12602;DHT22;30282;16.436;99.370;2023-04-24T14:13:45;32.90;99.90
12602;DHT22;30282;16.436;99.370;2023-04-24T14:16:14;33.00;99.90
12602;DHT22;30282;16.436;99.370;2023-04-24T14:18:43;32.90;99.90
12602;DHT22;30282;16.436;99.370;2023-04-24T14:21:12;32.90;99.90
12602;DHT22;30282;16.436;99.370;2023-04-24T14:23:42;32.90;99.90
12602;DHT22;30282;16.436;99.370;2023-04-24T14:26:12;32.80;99.90
12602;DHT22;30282;16.436;99.370;2023-04-24T14:28:43;32.70;99.90
12602;DHT22;30282;16.436;99.370;2023-04-24T14:31:15;32.70;99.90
12602;DHT22;30282;16.436;99.370;2023-04-24T14:33:44;32.70;99.90
12602;DHT22;30282;16.436;99.370;2023-04-24T14:36:13;32.60;99.90
12602;DHT22;30282;16.436;99.370;2023-04-24T14:38:42;32.50;99.90
12602;DHT22;30282;16.436;99.370;2023-04-24T14:41:11;32.50;99.90
12602;DHT22;30282;16.436;99.370;2023-04-24T14:43:41;32.50;99.90
12602;DHT22;30282;16.436;99.370;2023-04-24T14:46:12;32.40;99.90
12602;DHT22;30282;16.436;99.370;2023-04-24T14:48:41;32.30;99.90
12602;DHT22;30282;16.436;99.370;2023-04-24T14:51:10;32.20;99.90
12602;DHT22;30282;16.436;99.370;2023-04-24T14:53:42;32.20;99.90
12602;DHT22;30282;16.436;99.370;2023-04-24T14:56:13;32.10;99.90
12602;DHT22;30282;16.436;99.370;2023-04-24T14:58:42;32.10;99.90
12602;DHT22;30282;16.436;99.370;2023-04-24T15:01:13;32.10;99.90
12602;DHT22;30282;16.436;99.370;2023-04-24T15:03:42;32.10;99.90
12602;DHT22;30282;16.436;99.370;2023-04-24T15:06:12;32.10;99.90
12602;DHT22;30282;16.436;99.370;2023-04-24T15:08:41;32.00;99.90
12602;DHT22;30282;16.436;99.370;2023-04-24T15:11:11;32.00;99.90
12602;DHT22;30282;16.436;99.370;2023-04-24T15:13:41;32.00;99.90
12602;DHT22;30282;16.436;99.370;2023-04-24T15:16:13;31.90;99.90
12602;DHT22;30282;16.436;99.370;2023-04-24T15:18:43;31.90;99.90
12602;DHT22;30282;16.436;99.370;2023-04-24T15:21:12;31.90;99.90
12602;DHT22;30282;16.436;99.370;2023-04-24T15:23:42;31.80;99.90
12602;DHT22;30282;16.436;99.370;2023-04-24T15:26:11;31.70;99.90
12602;DHT22;30282;16.436;99.370;2023-04-24T15:28:40;31.70;99.90
12602;DHT22;30282;16.436;99.370;2023-04-24T15:31:10;31.70;99.90
12602;DHT22;30282;16.436;99.370;2023-04-24T15:33:41;31.60;99.90
12602;DHT22;30282;16.436;99.370;2023-04-24T15:36:10;31.70;99.90
12602;DHT22;30282;16.436;99.370;2023-04-24T15:38:43;31.70;99.90